»·PEaware :: N912NB KSAN-KSBP

N912NB :: KSAN-KSBP

FLIGHT INFORMATION

Flight Status: Arrived
Operator: Privately registered:
United States
More flights under this callsign
Pilot: Josh R. (20192)
Aircraft: BOEING 737-200
(B732)
More flights by this aircraft type
Origin: KSAN San Diego Intl-Lindbergh
United States
Destination: KSBP San Luis Co Regl
United States
More flights between these airports :: More routes between these airports
Route: +PEBLE6 SXC V208 VTU V25 RZS V12 GVO V27 MQO
File this flight plan on PilotEdge
Remarks:
Altitude:
(Current/Filed)
16,000ft
Speed:
(Current/Filed)
450kts
Departed: 22-Mar-20 04:33 PM
Arrived: 22-Mar-20 05:30 PM
Distance/Time
Traveled:
228nm/0:56
Distance/Time
To Go:
Arrived

Flight Plot

Page will automatically refresh every two minutes.

Flight plan parsing failed; only flown route is shown


Map Options




Map Legend


Flown Route
Filed Route
Departure Airport
Arrival Airport
Navaid (VOR, NDB)
Fix

Horizontal Profiles

Position Reports

Time Latitude Longitude Heading Altitude Ground
Speed
22-Mar-20 15:59 32.734160 -117.178804 142 26ft 0kts
22-Mar-20 16:00 32.734160 -117.178804 142 26ft 0kts
22-Mar-20 16:01 32.734160 -117.178804 142 26ft 0kts
22-Mar-20 16:02 32.734160 -117.178804 142 26ft 0kts
22-Mar-20 16:03 32.734160 -117.178804 142 26ft 0kts
22-Mar-20 16:04 32.734160 -117.178804 142 26ft 0kts
22-Mar-20 16:05 32.734160 -117.178804 142 26ft 0kts
22-Mar-20 16:06 32.734160 -117.178804 142 26ft 0kts
22-Mar-20 16:07 32.734160 -117.178804 142 26ft 0kts
22-Mar-20 16:07 32.734160 -117.178804 142 26ft 0kts
22-Mar-20 16:09 32.734160 -117.178804 142 26ft 0kts
22-Mar-20 16:10 32.734160 -117.178804 142 26ft 0kts
22-Mar-20 16:10 32.734160 -117.178804 142 26ft 0kts
22-Mar-20 16:11 32.734160 -117.178804 142 26ft 0kts
22-Mar-20 16:12 32.734160 -117.178804 142 26ft 0kts
22-Mar-20 16:13 32.734160 -117.178804 142 26ft 0kts
22-Mar-20 16:14 32.734160 -117.178804 142 26ft 0kts
22-Mar-20 16:15 32.734160 -117.178804 142 26ft 0kts
22-Mar-20 16:16 32.734160 -117.178803 142 26ft 0kts
22-Mar-20 16:17 32.734160 -117.178803 142 26ft 0kts
22-Mar-20 16:18 32.734160 -117.178803 142 26ft 0kts
22-Mar-20 16:19 32.734160 -117.178803 142 26ft 0kts
22-Mar-20 16:20 32.734160 -117.178803 142 26ft 0kts
22-Mar-20 16:21 32.734016 -117.178767 195 26ft 0kts
22-Mar-20 16:22 32.734016 -117.178767 195 26ft 0kts
22-Mar-20 16:23 32.734016 -117.178767 195 26ft 0kts
22-Mar-20 16:24 32.734016 -117.178767 195 26ft 0kts
22-Mar-20 16:25 32.734015 -117.178767 195 26ft 0kts
22-Mar-20 16:26 32.733732 -117.179098 239 25ft 0kts
22-Mar-20 16:27 32.733732 -117.179098 239 25ft 0kts
22-Mar-20 16:28 32.733732 -117.179098 239 25ft 0kts
22-Mar-20 16:29 32.731798 -117.176525 158 28ft 14kts
22-Mar-20 16:30 32.731113 -117.175706 136 28ft 0kts
22-Mar-20 16:31 32.731113 -117.175706 136 28ft 0kts
22-Mar-20 16:32 32.733241 -117.188391 285 43ft 144kts
22-Mar-20 16:33 32.756952 -117.239955 303 2694ft 203kts
22-Mar-20 16:34 32.793724 -117.297453 304 5505ft 249kts
22-Mar-20 16:35 32.839309 -117.370275 304 8833ft 283kts
22-Mar-20 16:36 32.888690 -117.444884 305 12128ft 292kts
22-Mar-20 16:37 32.949652 -117.500657 332 14888ft 309kts
22-Mar-20 16:38 33.013453 -117.579206 305 15620ft 354kts
22-Mar-20 16:39 33.078415 -117.673589 302 16056ft 396kts
22-Mar-20 16:40 33.144709 -117.777675 301 16029ft 415kts
22-Mar-20 16:41 33.205441 -117.891569 288 16023ft 419kts
22-Mar-20 16:42 33.247622 -118.020775 285 16008ft 423kts
22-Mar-20 16:43 33.287334 -118.148099 285 15999ft 427kts
22-Mar-20 16:44 33.330667 -118.281651 286 16001ft 431kts
22-Mar-20 16:45 33.382609 -118.407805 292 15994ft 417kts
22-Mar-20 16:46 33.444048 -118.518529 317 16025ft 413kts
22-Mar-20 16:47 33.516436 -118.621217 304 16001ft 411kts
22-Mar-20 16:48 33.584752 -118.721765 304 16003ft 428kts
22-Mar-20 16:49 33.661791 -118.833570 304 16005ft 444kts
22-Mar-20 16:50 33.740550 -118.946192 304 16002ft 437kts
22-Mar-20 16:51 33.815288 -119.053072 304 15998ft 427kts
22-Mar-20 16:52 33.919413 -119.119372 359 15996ft 455kts
22-Mar-20 16:53 34.036277 -119.063105 18 16002ft 457kts
22-Mar-20 16:54 34.136971 -119.062489 324 15990ft 426kts
22-Mar-20 16:55 34.210343 -119.166432 298 15983ft 405kts
22-Mar-20 16:56 34.268254 -119.277230 293 15981ft 401kts
22-Mar-20 16:57 34.313470 -119.375615 293 15981ft 401kts
22-Mar-20 16:58 34.366077 -119.485786 295 15981ft 404kts
22-Mar-20 16:59 34.424612 -119.600318 295 15982ft 404kts
22-Mar-20 17:00 34.477848 -119.707327 294 15982ft 405kts
22-Mar-20 17:01 34.514510 -119.830901 267 15975ft 385kts
22-Mar-20 17:02 34.520883 -119.953403 270 15954ft 388kts
22-Mar-20 17:03 34.548472 -120.077736 290 15939ft 402kts
22-Mar-20 17:04 34.605142 -120.173457 326 15990ft 427kts
22-Mar-20 17:05 34.702676 -120.246272 315 16012ft 419kts
22-Mar-20 17:06 34.793039 -120.332119 316 16009ft 421kts
22-Mar-20 17:07 34.883942 -120.416907 318 16008ft 423kts
22-Mar-20 17:08 34.978827 -120.495051 318 15998ft 389kts
22-Mar-20 17:09 35.059658 -120.573306 314 15034ft 357kts
22-Mar-20 17:10 35.130379 -120.643736 317 13433ft 349kts
22-Mar-20 17:11 35.201887 -120.711631 318 12274ft 307kts
22-Mar-20 17:12 35.263059 -120.774844 305 9755ft 284kts
22-Mar-20 17:13 35.306070 -120.846737 302 8038ft 266kts
22-Mar-20 17:14 35.347158 -120.920256 302 5307ft 259kts
22-Mar-20 17:15 35.392073 -120.985678 347 4094ft 252kts
22-Mar-20 17:16 35.418094 -120.941254 133 3971ft 188kts
22-Mar-20 17:17 35.376243 -120.903727 150 4009ft 171kts
22-Mar-20 17:18 35.325527 -120.881836 158 4195ft 205kts
22-Mar-20 17:19 35.330553 -120.907357 14 4062ft 204kts
22-Mar-20 17:20 35.385861 -120.890206 14 3911ft 210kts
22-Mar-20 17:21 35.444923 -120.871373 12 4035ft 224kts
22-Mar-20 17:22 35.485771 -120.836923 134 3979ft 212kts
22-Mar-20 17:23 35.428402 -120.845657 186 4055ft 207kts
22-Mar-20 17:24 35.374288 -120.822280 156 3512ft 224kts
22-Mar-20 17:25 35.320148 -120.792512 155 2962ft 190kts
22-Mar-20 17:26 35.291648 -120.744124 110 2291ft 195kts
22-Mar-20 17:27 35.263992 -120.688037 123 970ft 174kts
22-Mar-20 17:28 35.238108 -120.642114 123 195ft 144kts
22-Mar-20 17:29 35.233214 -120.632253 24 219ft 14kts
22-Mar-20 17:30 35.237366 -120.637880 23 207ft 30kts

Navigation Log

Ident Type
Flight plan parsing failed, navigation log unavailable